createdAt,value
2023-01-11T00:02:29.701Z,3.37
2023-01-11T00:05:58.757Z,3.30
2023-01-11T00:09:26.082Z,3.26
2023-01-11T00:12:53.269Z,3.24
2023-01-11T00:16:20.158Z,3.26
2023-01-11T00:19:47.329Z,3.29
2023-01-11T00:23:14.606Z,3.31
2023-01-11T00:26:41.597Z,3.32
2023-01-11T00:30:10.440Z,3.31
2023-01-11T00:33:37.375Z,3.30
2023-01-11T00:37:04.579Z,3.29
2023-01-11T00:40:31.474Z,3.29
2023-01-11T00:44:15.966Z,3.29
2023-01-11T00:47:58.291Z,3.27
2023-01-11T00:51:25.888Z,3.22
2023-01-11T00:54:52.975Z,3.15
2023-01-11T00:58:20.007Z,3.07
2023-01-11T01:01:47.115Z,2.97
2023-01-11T01:05:14.696Z,2.89
2023-01-11T01:08:41.692Z,2.82
2023-01-11T01:12:10.245Z,2.79
2023-01-11T01:15:37.326Z,2.75
2023-01-11T01:19:05.025Z,2.73
2023-01-11T01:22:32.158Z,2.72
2023-01-11T01:25:59.063Z,2.71
2023-01-11T01:29:26.880Z,2.70
2023-01-11T01:32:53.793Z,2.69
2023-01-11T01:36:20.801Z,2.68
2023-01-11T01:39:47.839Z,2.65
2023-01-11T01:43:16.471Z,2.61
2023-01-11T01:46:43.330Z,2.57
2023-01-11T01:50:15.603Z,2.52
2023-01-11T01:53:46.707Z,2.45
2023-01-11T01:57:20.388Z,2.38
2023-01-11T02:00:48.565Z,2.32
2023-01-11T02:04:20.685Z,2.27
2023-01-11T02:07:49.147Z,2.23
2023-01-11T02:11:31.052Z,2.18
2023-01-11T02:15:00.716Z,2.13
2023-01-11T02:18:27.843Z,2.09
2023-01-11T02:22:14.815Z,2.04
2023-01-11T02:26:12.914Z,1.99
2023-01-11T02:29:53.743Z,1.94
2023-01-11T02:33:26.797Z,1.90
2023-01-11T02:37:10.023Z,1.86
2023-01-11T02:40:49.108Z,1.82
2023-01-11T02:44:38.886Z,1.79
2023-01-11T02:48:15.908Z,1.74
2023-01-11T02:51:48.300Z,1.71
2023-01-11T02:55:17.909Z,1.68
2023-01-11T02:58:48.151Z,1.65
2023-01-11T03:02:17.002Z,1.64
2023-01-11T03:05:53.294Z,1.63
2023-01-11T03:09:29.725Z,1.61
2023-01-11T03:13:07.720Z,1.59
2023-01-11T03:16:45.043Z,1.54
2023-01-11T03:20:19.493Z,1.51
2023-01-11T03:23:56.647Z,1.50
2023-01-11T03:27:33.125Z,1.47
2023-01-11T03:31:07.072Z,1.46
2023-01-11T03:34:36.973Z,1.41
2023-01-11T03:38:07.379Z,1.36
2023-01-11T03:41:38.566Z,1.31
2023-01-11T03:45:07.176Z,1.28
2023-01-11T03:48:40.315Z,1.25
2023-01-11T03:52:10.234Z,1.21
2023-01-11T03:55:42.914Z,1.14
2023-01-11T03:59:10.074Z,1.11
2023-01-11T04:02:41.200Z,1.08
2023-01-11T04:06:11.122Z,1.06
2023-01-11T04:09:38.333Z,1.02
2023-01-11T04:13:05.871Z,0.98
2023-01-11T04:16:32.860Z,0.94
2023-01-11T04:20:00.241Z,0.91
2023-01-11T04:23:27.287Z,0.86
2023-01-11T04:26:54.355Z,0.82
2023-01-11T04:30:21.932Z,0.79
2023-01-11T04:33:48.902Z,0.77
2023-01-11T04:37:15.765Z,0.76
2023-01-11T04:40:42.665Z,0.74
2023-01-11T04:44:09.984Z,0.72
2023-01-11T04:47:37.032Z,0.68
2023-01-11T04:51:04.038Z,0.65
2023-01-11T04:54:30.857Z,0.61
2023-01-11T04:57:58.058Z,0.58
2023-01-11T05:01:25.069Z,0.54
2023-01-11T05:04:51.968Z,0.52
2023-01-11T05:08:18.899Z,0.48
2023-01-11T05:11:46.169Z,0.46
2023-01-11T05:15:14.096Z,0.43
2023-01-11T05:18:42.444Z,0.42
2023-01-11T05:22:10.129Z,0.40
2023-01-11T05:25:36.995Z,0.40
2023-01-11T05:29:06.551Z,0.41
2023-01-11T05:32:31.936Z,0.42
2023-01-11T05:36:03.123Z,0.44
2023-01-11T05:39:30.024Z,0.47
2023-01-11T05:42:56.938Z,0.53
2023-01-11T05:46:24.512Z,0.56
2023-01-11T05:49:51.403Z,0.61
2023-01-11T05:53:18.436Z,0.65
2023-01-11T05:56:45.459Z,0.69
2023-01-11T06:00:14.931Z,0.74
2023-01-11T06:03:42.107Z,0.77
2023-01-11T06:07:09.994Z,0.81
2023-01-11T06:10:36.998Z,0.84
2023-01-11T06:14:04.322Z,0.89
2023-01-11T06:17:31.176Z,0.96
2023-01-11T06:20:58.549Z,1.04
2023-01-11T06:24:26.064Z,1.12
2023-01-11T06:27:53.873Z,1.20
2023-01-11T06:31:21.197Z,1.27
2023-01-11T06:34:48.701Z,1.33
2023-01-11T06:38:19.007Z,1.37
2023-01-11T06:41:46.084Z,1.42
2023-01-11T06:45:14.611Z,1.48
2023-01-11T06:48:41.684Z,1.53
2023-01-11T06:52:08.679Z,1.57
2023-01-11T06:55:35.947Z,1.63
2023-01-11T06:59:02.808Z,1.68
2023-01-11T07:02:30.055Z,1.72
2023-01-11T07:05:58.217Z,1.75
2023-01-11T07:09:25.312Z,1.79
2023-01-11T07:12:53.493Z,1.84
2023-01-11T07:16:20.417Z,1.92
2023-01-11T07:19:47.737Z,1.99
2023-01-11T07:23:14.695Z,2.10
2023-01-11T07:26:43.483Z,2.21
2023-01-11T07:30:12.601Z,2.32
2023-01-11T07:33:39.451Z,2.43
2023-01-11T07:37:06.589Z,2.53
2023-01-11T07:40:36.376Z,2.64
2023-01-11T07:44:03.216Z,2.76
2023-01-11T07:47:30.483Z,2.86
2023-01-11T07:50:57.498Z,2.97
2023-01-11T07:54:25.174Z,3.08
2023-01-11T07:57:52.160Z,3.17
2023-01-11T08:01:19.371Z,3.22
2023-01-11T08:04:46.465Z,3.24
2023-01-11T08:08:13.548Z,3.25
2023-01-11T08:11:58.445Z,3.26
2023-01-11T08:15:25.500Z,3.28
2023-01-11T08:18:52.570Z,3.31
2023-01-11T08:22:19.543Z,3.35
2023-01-11T08:25:46.597Z,3.40
2023-01-11T08:29:13.560Z,3.45
2023-01-11T08:32:40.700Z,3.49
2023-01-11T08:36:10.931Z,3.54
2023-01-11T08:39:37.822Z,3.58
2023-01-11T08:43:04.736Z,3.66
2023-01-11T08:46:34.140Z,3.72
2023-01-11T08:50:01.228Z,3.78
2023-01-11T08:53:28.545Z,3.84
2023-01-11T08:56:56.047Z,3.89
2023-01-11T09:00:24.255Z,3.95
2023-01-11T09:03:51.146Z,4.01
2023-01-11T09:07:18.051Z,4.07
2023-01-11T09:10:45.087Z,4.15
2023-01-11T09:14:12.145Z,4.22
2023-01-11T09:17:39.132Z,4.29
2023-01-11T09:21:06.391Z,4.36
2023-01-11T09:24:33.759Z,4.41
2023-01-11T09:28:01.259Z,4.48
2023-01-11T09:31:28.242Z,4.56
2023-01-11T09:34:58.150Z,4.64
2023-01-11T09:38:29.611Z,4.74
2023-01-11T09:42:17.997Z,4.82
2023-01-11T09:45:46.992Z,4.88
2023-01-11T09:49:20.328Z,4.95
2023-01-11T09:52:52.738Z,5.02
2023-01-11T09:56:27.863Z,5.09
2023-01-11T10:00:05.031Z,5.18
2023-01-11T10:03:48.915Z,5.27
2023-01-11T10:07:42.929Z,5.37
2023-01-11T10:18:29.453Z,5.56
2023-01-11T10:23:08.657Z,5.67
2023-01-11T10:26:41.465Z,5.73
2023-01-11T10:30:41.833Z,5.80
2023-01-11T10:34:37.024Z,5.87
2023-01-11T10:38:30.711Z,5.93
2023-01-11T10:42:09.609Z,5.99
2023-01-11T10:45:43.496Z,6.02
2023-01-11T10:49:32.979Z,6.02
2023-01-11T10:53:07.567Z,6.03
2023-01-11T10:57:02.536Z,6.05
2023-01-11T11:00:40.341Z,6.05
2023-01-11T11:04:21.904Z,6.07
2023-01-11T11:07:53.956Z,6.11
2023-01-11T11:11:27.955Z,6.13
2023-01-11T11:15:02.108Z,6.17
2023-01-11T11:18:29.706Z,6.21
2023-01-11T11:21:56.735Z,6.23
2023-01-11T11:25:29.599Z,6.23
2023-01-11T11:29:06.460Z,6.24
2023-01-11T11:32:37.352Z,6.26
2023-01-11T11:36:07.388Z,6.27
2023-01-11T11:39:34.741Z,6.31
2023-01-11T11:43:21.857Z,6.35
2023-01-11T11:47:01.088Z,6.38
2023-01-11T11:50:44.130Z,6.38
2023-01-11T11:54:23.275Z,6.37
2023-01-11T11:57:50.373Z,6.37
2023-01-11T12:01:30.894Z,6.34
2023-01-11T12:04:59.700Z,6.32
2023-01-11T12:08:28.669Z,6.34
2023-01-11T12:11:55.850Z,6.36
2023-01-11T12:15:27.295Z,6.37
2023-01-11T12:18:54.305Z,6.40
2023-01-11T12:22:22.849Z,6.42
2023-01-11T12:26:13.908Z,6.44
2023-01-11T12:30:13.434Z,6.45
2023-01-11T12:33:46.958Z,6.47
2023-01-11T12:37:25.631Z,6.49
2023-01-11T12:41:08.614Z,6.49
2023-01-11T12:44:52.550Z,6.49
2023-01-11T12:48:37.573Z,6.50
2023-01-11T12:52:29.245Z,6.52
2023-01-11T12:56:11.725Z,6.52
2023-01-11T12:59:56.476Z,6.55
2023-01-11T13:03:51.672Z,6.56
2023-01-11T13:07:34.687Z,6.57
2023-01-11T13:11:12.299Z,6.58
2023-01-11T13:14:54.128Z,6.59
2023-01-11T13:18:29.901Z,6.61
2023-01-11T13:21:59.213Z,6.63
2023-01-11T13:25:30.179Z,6.65
2023-01-11T13:29:02.622Z,6.65
2023-01-11T13:32:32.730Z,6.64
2023-01-11T13:36:15.080Z,6.63
2023-01-11T13:39:53.043Z,6.61
2023-01-11T13:43:28.288Z,6.60
2023-01-11T13:47:05.978Z,6.59
2023-01-11T13:50:39.490Z,6.57
2023-01-11T13:54:12.640Z,6.55
2023-01-11T13:57:48.078Z,6.52
2023-01-11T14:01:18.605Z,6.49
2023-01-11T14:04:52.456Z,6.47
2023-01-11T14:08:31.301Z,6.45
2023-01-11T14:12:06.622Z,6.45
2023-01-11T14:15:39.183Z,6.44
2023-01-11T14:19:13.788Z,6.43
2023-01-11T14:22:49.446Z,6.42
2023-01-11T14:26:44.321Z,6.40
2023-01-11T14:30:24.082Z,6.39
2023-01-11T14:34:08.041Z,6.38
2023-01-11T14:38:13.858Z,6.37
2023-01-11T14:42:31.208Z,6.36
2023-01-11T14:46:17.061Z,6.34
2023-01-11T14:49:59.585Z,6.33
2023-01-11T14:53:31.858Z,6.32
2023-01-11T14:56:59.477Z,6.30
2023-01-11T15:01:00.625Z,6.29
2023-01-11T15:04:27.848Z,6.25
2023-01-11T15:08:08.830Z,6.25
2023-01-11T15:11:39.040Z,6.23
2023-01-11T15:15:15.587Z,6.23
2023-01-11T15:18:48.408Z,6.22
2023-01-11T15:22:27.432Z,6.22
2023-01-11T15:26:03.677Z,6.21
2023-01-11T15:29:32.860Z,6.21
2023-01-11T15:33:45.696Z,6.20
2023-01-11T15:37:43.030Z,6.20
2023-01-11T15:41:38.164Z,6.21
2023-01-11T15:46:03.214Z,6.22
2023-01-11T15:49:59.749Z,6.22
2023-01-11T15:53:53.418Z,6.24
2023-01-11T15:58:00.233Z,6.26
2023-01-11T16:01:29.483Z,6.28
2023-01-11T16:05:01.632Z,6.29
2023-01-11T16:08:36.837Z,6.29
2023-01-11T16:12:22.461Z,6.29
2023-01-11T16:16:02.908Z,6.28
2023-01-11T16:19:33.502Z,6.29
2023-01-11T16:23:03.967Z,6.29
2023-01-11T16:26:31.056Z,6.30
2023-01-11T16:29:58.679Z,6.31
2023-01-11T16:33:27.428Z,6.31
2023-01-11T16:36:54.347Z,6.32
2023-01-11T16:40:27.087Z,6.32
2023-01-11T16:44:00.155Z,6.32
2023-01-11T16:47:27.214Z,6.31
2023-01-11T16:51:03.767Z,6.30
2023-01-11T16:54:34.282Z,6.29
2023-01-11T16:58:04.026Z,6.27
2023-01-11T17:01:29.395Z,6.26
2023-01-11T17:04:56.555Z,6.26
2023-01-11T17:08:32.428Z,6.24
2023-01-11T17:11:59.492Z,6.18
2023-01-11T17:15:35.182Z,6.08
2023-01-11T17:19:08.119Z,5.97
2023-01-11T17:22:38.011Z,5.87
2023-01-11T17:26:03.432Z,5.80
2023-01-11T17:29:33.532Z,5.74
2023-01-11T17:33:03.088Z,5.69
2023-01-11T17:36:30.689Z,5.64
2023-01-11T17:39:59.026Z,5.61
2023-01-11T17:43:45.219Z,5.58
2023-01-11T17:47:14.348Z,5.56
2023-01-11T17:50:48.695Z,5.55
2023-01-11T17:54:23.378Z,5.55
2023-01-11T17:58:14.109Z,5.55
2023-01-11T18:01:46.126Z,5.56
2023-01-11T18:05:19.310Z,5.56
2023-01-11T18:08:51.624Z,5.56
2023-01-11T18:12:22.541Z,5.57
2023-01-11T18:15:50.006Z,5.59
2023-01-11T18:19:32.689Z,5.60
2023-01-11T18:23:05.263Z,5.61
2023-01-11T18:26:33.542Z,5.62
2023-01-11T18:30:06.314Z,5.62
2023-01-11T18:33:35.277Z,5.63
2023-01-11T18:37:03.354Z,5.63
2023-01-11T18:40:30.962Z,5.64
2023-01-11T18:43:58.375Z,5.65
2023-01-11T18:47:28.518Z,5.66
2023-01-11T18:50:56.115Z,5.66
2023-01-11T18:54:23.011Z,5.67
2023-01-11T18:57:50.447Z,5.68
2023-01-11T19:01:18.085Z,5.69
2023-01-11T19:04:45.573Z,5.71
2023-01-11T19:08:12.567Z,5.73
2023-01-11T19:11:39.443Z,5.75
2023-01-11T19:15:07.246Z,5.76
2023-01-11T19:18:35.361Z,5.78
2023-01-11T19:22:02.612Z,5.79
2023-01-11T19:25:30.200Z,5.81
2023-01-11T19:28:57.290Z,5.82
2023-01-11T19:32:28.692Z,5.83
2023-01-11T19:35:56.286Z,5.85
2023-01-11T19:39:23.436Z,5.87
2023-01-11T19:42:52.446Z,5.89
2023-01-11T19:46:31.048Z,5.91
2023-01-11T19:50:01.100Z,5.93
2023-01-11T19:53:29.976Z,5.96
2023-01-11T19:56:56.887Z,5.98
2023-01-11T20:00:24.418Z,6.00
2023-01-11T20:03:51.941Z,6.02
2023-01-11T20:07:19.765Z,6.03
2023-01-11T20:10:47.622Z,6.05
2023-01-11T20:14:15.209Z,6.06
2023-01-11T20:17:42.291Z,6.07
2023-01-11T20:21:10.757Z,6.09
2023-01-11T20:24:37.769Z,6.10
2023-01-11T20:28:05.300Z,6.12
2023-01-11T20:31:35.461Z,6.13
2023-01-11T20:35:03.146Z,6.15
2023-01-11T20:38:31.135Z,6.17
2023-01-11T20:41:58.196Z,6.19
2023-01-11T20:45:30.595Z,6.21
2023-01-11T20:48:58.080Z,6.22
2023-01-11T20:52:25.271Z,6.25
2023-01-11T20:55:52.794Z,6.29
2023-01-11T20:59:21.318Z,6.33
2023-01-11T21:02:51.370Z,6.35
2023-01-11T21:06:18.970Z,6.38
2023-01-11T21:09:46.841Z,6.40
2023-01-11T21:13:14.357Z,6.42
2023-01-11T21:16:44.277Z,6.43
2023-01-11T21:20:13.903Z,6.43
2023-01-11T21:23:41.255Z,6.44
2023-01-11T21:27:08.870Z,6.45
2023-01-11T21:30:36.495Z,6.46
2023-01-11T21:34:04.541Z,6.47
2023-01-11T21:37:34.559Z,6.47
2023-01-11T21:41:08.539Z,6.47
2023-01-11T21:44:36.337Z,6.48
2023-01-11T21:48:03.862Z,6.49
2023-01-11T21:51:31.375Z,6.49
2023-01-11T21:54:58.454Z,6.50
2023-01-11T21:58:25.657Z,6.51
2023-01-11T22:01:52.716Z,6.53
2023-01-11T22:05:19.803Z,6.54
2023-01-11T22:08:47.385Z,6.56
2023-01-11T22:12:14.296Z,6.58
2023-01-11T22:15:41.549Z,6.60
2023-01-11T22:19:09.377Z,6.62
2023-01-11T22:22:36.529Z,6.63
2023-01-11T22:26:07.496Z,6.65
2023-01-11T22:29:34.331Z,6.66
2023-01-11T22:33:02.134Z,6.68
2023-01-11T22:36:30.407Z,6.70
2023-01-11T22:40:00.765Z,6.71
2023-01-11T22:43:28.608Z,6.72
2023-01-11T22:46:55.567Z,6.73
2023-01-11T22:50:22.623Z,6.75
2023-01-11T22:53:50.806Z,6.77
2023-01-11T22:57:17.813Z,6.79
2023-01-11T23:00:44.879Z,6.82
2023-01-11T23:04:15.110Z,6.83
2023-01-11T23:07:44.334Z,6.85
2023-01-11T23:11:15.017Z,6.86
2023-01-11T23:14:41.897Z,6.87
2023-01-11T23:18:09.137Z,6.88
2023-01-11T23:21:36.903Z,6.89
2023-01-11T23:25:04.212Z,6.90
2023-01-11T23:28:33.059Z,6.90
2023-01-11T23:32:00.467Z,6.90
2023-01-11T23:35:27.474Z,6.91
2023-01-11T23:38:54.319Z,6.91
2023-01-11T23:42:27.236Z,6.91
2023-01-11T23:46:14.449Z,6.91
2023-01-11T23:49:43.233Z,6.91
2023-01-11T23:53:10.397Z,6.89
2023-01-11T23:56:37.951Z,6.85
